Time;durP1;ratioP1;P1;durP2;ratioP2;P2;SDS_P1;SDS_P2;PMS_P1;PMS_P2;Temp;Humidity;BMP_temperature;BMP_pressure;BME280_temperature;BME280_humidity;BME280_pressure;Samples;Min_cycle;Max_cycle;Signal;HPM_P1;HPM_P2
2023/11/26 00:01:34;;;;;;;;;;;;;;;28.31;57.31;101027.34;5040929;28;67180;-32
2023/11/26 00:04:04;;;;;;;;;;;;;;;28.33;57.53;101036.06;5041506;28;70820;-32
2023/11/26 00:06:33;;;;;;;;;;;;;;;28.36;57.46;101045.63;5042613;28;66487;-33
2023/11/26 00:09:03;;;;;;;;;;;;;;;28.38;57.88;101055.19;5041047;28;71010;-33
2023/11/26 00:11:33;;;;;;;;;;;;;;;28.40;58.06;101058.53;5042187;28;66275;-32
2023/11/26 00:14:03;;;;;;;;;;;;;;;28.42;58.44;101067.28;5041334;28;69544;-33
2023/11/26 00:16:39;;;;;;;;;;;;;;;28.44;58.55;101070.59;5040493;28;64974;-32
2023/11/26 00:19:09;;;;;;;;;;;;;;;28.45;58.22;101072.28;5040733;28;70569;-33
2023/11/26 00:21:38;;;;;;;;;;;;;;;28.47;58.60;101081.03;5041991;28;66903;-33
2023/11/26 00:24:08;;;;;;;;;;;;;;;28.49;58.79;101095.13;5041358;28;69661;-33
2023/11/26 00:26:37;;;;;;;;;;;;;;;28.51;58.99;101101.16;5042556;28;65997;-33
2023/11/26 00:29:07;;;;;;;;;;;;;;;28.57;59.64;101104.09;5039456;28;69985;-33
2023/11/26 00:31:37;;;;;;;;;;;;;;;28.59;60.01;101105.56;5044223;28;66590;-32
2023/11/26 00:34:07;;;;;;;;;;;;;;;28.62;69.98;101109.75;5032262;28;69871;-34
2023/11/26 00:36:36;;;;;;;;;;;;;;;28.64;74.26;101115.75;5022117;28;66898;-33
2023/11/26 00:39:08;;;;;;;;;;;;;;;28.68;75.05;101120.56;5039840;28;69997;-33
2023/11/26 00:41:38;;;;;;;;;;;;;;;28.73;75.57;101111.88;5015147;28;66632;-33
2023/11/26 00:44:08;;;;;;;;;;;;;;;28.74;76.70;101117.06;5027427;28;70303;-34
2023/11/26 00:46:37;;;;;;;;;;;;;;;28.78;77.33;101117.50;5040005;28;67068;-33
2023/11/26 00:49:07;;;;;;;;;;;;;;;28.81;77.17;101125.22;5054524;28;69375;-35
2023/11/26 00:51:37;;;;;;;;;;;;;;;28.84;77.98;101122.09;5039275;28;66841;-33
2023/11/26 00:54:08;;;;;;;;;;;;;;;28.87;76.95;101129.81;5039659;28;69933;-34
2023/11/26 00:56:38;;;;;;;;;;;;;;;28.58;78.06;101081.47;5041966;28;66834;-33
2023/11/26 00:59:07;;;;;;;;;;;;;;;28.88;78.06;101126.06;5040918;28;69823;-33
2023/11/26 01:01:38;;;;;;;;;;;;;;;28.92;78.41;101124.63;5040101;28;66830;-35
2023/11/26 01:04:08;;;;;;;;;;;;;;;28.94;78.25;101130.66;5021857;28;69697;-34
2023/11/26 01:06:38;;;;;;;;;;;;;;;28.99;78.15;101132.75;5038142;28;66587;-35
2023/11/26 01:09:07;;;;;;;;;;;;;;;29.01;74.95;101136.09;5036832;28;69580;-36
2023/11/26 01:11:38;;;;;;;;;;;;;;;29.04;73.38;101134.88;5039157;28;65624;-33
2023/11/26 01:14:08;;;;;;;;;;;;;;;29.08;71.73;101128.03;5053253;28;70254;-33
2023/11/26 01:16:38;;;;;;;;;;;;;;;29.11;71.23;101131.19;5039438;28;66558;-36
2023/11/26 01:19:08;;;;;;;;;;;;;;;29.18;76.82;101142.00;5037881;28;70362;-34
2023/11/26 01:21:38;;;;;;;;;;;;;;;29.22;77.49;101132.44;5042395;28;64647;-33
2023/11/26 01:24:08;;;;;;;;;;;;;;;29.22;77.88;101140.53;5036763;28;70119;-33
2023/11/26 01:26:38;;;;;;;;;;;;;;;29.23;78.37;101142.22;5022035;28;66946;-33
2023/11/26 01:29:08;;;;;;;;;;;;;;;29.23;79.19;101139.53;5035296;28;70585;-33
2023/11/26 01:31:38;;;;;;;;;;;;;;;29.25;78.96;101142.84;5036864;28;66370;-34
2023/11/26 01:34:08;;;;;;;;;;;;;;;29.28;78.79;101145.16;5051016;28;70493;-34
2023/11/26 01:36:40;;;;;;;;;;;;;;;29.29;79.32;101138.72;5035729;28;66227;-34
2023/11/26 01:39:10;;;;;;;;;;;;;;;29.32;78.97;101138.31;5035722;28;69467;-34
2023/11/26 01:41:40;;;;;;;;;;;;;;;29.33;79.26;101139.97;5012646;28;68780;-34
2023/11/26 01:44:10;;;;;;;;;;;;;;;29.35;78.96;101137.88;5015417;28;69449;-34
2023/11/26 01:46:40;;;;;;;;;;;;;;;29.38;79.04;101136.66;5036066;28;67010;-34
2023/11/26 01:49:10;;;;;;;;;;;;;;;29.40;79.17;101140.81;5037019;28;69717;-35
2023/11/26 01:51:40;;;;;;;;;;;;;;;29.44;79.32;101140.41;5034751;28;67060;-35
2023/11/26 01:54:10;;;;;;;;;;;;;;;29.46;79.62;101141.03;5037591;28;69161;-33
2023/11/26 01:56:40;;;;;;;;;;;;;;;29.49;79.97;101146.03;5033749;28;67053;-34
2023/11/26 01:59:10;;;;;;;;;;;;;;;29.51;79.40;101141.28;5050642;28;70202;-34
2023/11/26 02:01:40;;;;;;;;;;;;;;;29.51;79.63;101152.06;5050203;28;66322;-34
2023/11/26 02:04:09;;;;;;;;;;;;;;;29.54;79.44;101146.25;5037144;28;69622;-34
2023/11/26 02:06:39;;;;;;;;;;;;;;;29.53;78.79;101137.31;5036479;28;66169;-34
2023/11/26 02:09:10;;;;;;;;;;;;;;;29.54;78.55;101146.25;5037476;28;69997;-34
2023/11/26 02:11:40;;;;;;;;;;;;;;;29.56;79.12;101146.88;5034122;28;66308;-35
2023/11/26 02:14:10;;;;;;;;;;;;;;;29.59;78.48;101143.78;5034296;28;69755;-36
2023/11/26 02:16:39;;;;;;;;;;;;;;;29.61;78.39;101141.69;5011372;28;66664;-34
2023/11/26 02:19:14;;;;;;;;;;;;;;;29.62;78.76;101152.31;5031076;28;69914;-34
2023/11/26 02:21:44;;;;;;;;;;;;;;;29.65;78.22;101142.97;5036200;28;67173;-33
2023/11/26 02:24:15;;;;;;;;;;;;;;;29.67;77.90;101143.63;5017776;28;69475;-33
2023/11/26 02:26:45;;;;;;;;;;;;;;;29.67;77.89;101140.91;5037089;28;67063;-35
2023/11/26 02:29:15;;;;;;;;;;;;;;;29.69;77.80;101138.81;5017603;28;71256;-35
2023/11/26 02:31:46;;;;;;;;;;;;;;;29.70;78.07;101135.09;5035162;28;68088;-33
2023/11/26 02:34:15;;;;;;;;;;;;;;;29.74;78.28;101140.91;5033854;28;70603;-35
2023/11/26 02:36:45;;;;;;;;;;;;;;;29.77;77.73;101141.31;5035710;28;64857;-34
2023/11/26 02:39:15;;;;;;;;;;;;;;;29.78;77.94;101143.00;5033617;28;69838;-35
2023/11/26 02:41:44;;;;;;;;;;;;;;;29.80;77.61;101140.06;5017282;28;65504;-35
2023/11/26 02:44:14;;;;;;;;;;;;;;;29.80;77.33;101143.59;5049475;28;70711;-34
2023/11/26 02:46:44;;;;;;;;;;;;;;;29.82;77.58;101138.00;5036132;28;67235;-35
2023/11/26 02:49:13;;;;;;;;;;;;;;;29.82;77.30;101133.44;5038453;28;69209;-33
2023/11/26 02:51:43;;;;;;;;;;;;;;;29.83;76.93;101135.06;5041545;28;66070;-32
2023/11/26 02:54:16;;;;;;;;;;;;;;;29.83;76.49;101135.06;5040596;28;70464;-34
2023/11/26 02:56:46;;;;;;;;;;;;;;;29.91;75.41;101131.34;5027999;28;67680;-34
2023/11/26 02:59:15;;;;;;;;;;;;;;;29.96;74.81;101128.03;5043428;28;70619;-35
2023/11/26 03:01:47;;;;;;;;;;;;;;;29.97;74.18;101118.88;5042708;28;66219;-34
2023/11/26 03:04:21;;;;;;;;;;;;;;;29.99;74.23;101114.91;5053263;28;69760;-33
2023/11/26 03:06:52;;;;;;;;;;;;;;;30.01;74.74;101120.13;5024739;28;66463;-34
2023/11/26 03:14:53;;;;;;;;;;;;;;;30.08;73.82;101104.69;5056915;28;70726;-35
2023/11/26 03:17:23;;;;;;;;;;;;;;;30.10;74.75;101096.38;5044336;28;66786;-33
2023/11/26 03:19:53;;;;;;;;;;;;;;;30.13;75.95;101091.38;5058263;28;68730;-34
2023/11/26 03:22:23;;;;;;;;;;;;;;;30.15;75.62;101094.72;5046491;28;65660;-34
2023/11/26 03:24:53;;;;;;;;;;;;;;;30.19;75.11;101089.72;5043024;28;70397;-35
2023/11/26 03:27:23;;;;;;;;;;;;;;;30.20;74.42;101089.50;5033465;28;66482;-34
2023/11/26 03:29:52;;;;;;;;;;;;;;;30.24;73.94;101092.66;5044199;28;71129;-33
2023/11/26 03:32:23;;;;;;;;;;;;;;;30.24;73.79;101085.38;5043399;28;66675;-34
2023/11/26 03:34:53;;;;;;;;;;;;;;;30.28;72.87;101075.78;5040017;28;70401;-34
2023/11/26 03:37:22;;;;;;;;;;;;;;;30.33;71.49;101080.56;5052283;28;67334;-34
2023/11/26 03:39:52;;;;;;;;;;;;;;;30.35;71.71;101083.88;5055712;28;70331;-36
2023/11/26 03:42:22;;;;;;;;;;;;;;;30.37;71.78;101070.13;5038739;28;65536;-34
2023/11/26 03:44:57;;;;;;;;;;;;;;;30.42;69.86;101067.63;5042277;28;70603;-36
2023/11/26 03:47:26;;;;;;;;;;;;;;;30.16;69.56;101014.38;5045185;28;66050;-34
2023/11/26 03:49:56;;;;;;;;;;;;;;;30.49;68.06;101049.50;5040730;28;69776;-35
2023/11/26 03:52:26;;;;;;;;;;;;;;;30.52;68.50;101051.75;5044483;28;65652;-34
2023/11/26 03:54:56;;;;;;;;;;;;;;;30.55;68.96;101036.97;5041339;28;69691;-36
2023/11/26 03:57:26;;;;;;;;;;;;;;;30.57;68.69;101038.44;5041899;28;66401;-34
2023/11/26 03:59:57;;;;;;;;;;;;;;;30.58;68.10;101026.53;5044001;28;70620;-33
2023/11/26 04:02:27;;;;;;;;;;;;;;;30.60;67.96;101012.81;5040777;28;66747;-35
2023/11/26 04:04:57;;;;;;;;;;;;;;;30.61;68.32;101017.16;5039437;28;70778;-34
2023/11/26 04:07:27;;;;;;;;;;;;;;;30.64;68.77;101006.72;5040283;28;66421;-34
2023/11/26 04:10:00;;;;;;;;;;;;;;;30.62;69.38;101008.84;5040563;28;69976;-33
2023/11/26 04:12:30;;;;;;;;;;;;;;;30.62;69.98;100998.00;5039537;28;65495;-34
2023/11/26 04:15:03;;;;;;;;;;;;;;;30.62;69.67;101003.41;5037698;28;70221;-33
2023/11/26 04:17:34;;;;;;;;;;;;;;;30.62;70.25;101003.41;5028845;28;66052;-33
2023/11/26 04:20:08;;;;;;;;;;;;;;;30.64;70.09;100990.47;5023377;28;69225;-35
2023/11/26 04:22:38;;;;;;;;;;;;;;;30.68;70.02;100982.78;5034973;28;66767;-33
2023/11/26 04:25:10;;;;;;;;;;;;;;;30.68;70.11;100980.88;5037506;28;70786;-34
2023/11/26 04:27:40;;;;;;;;;;;;;;;30.71;69.69;100980.44;5039197;28;65435;-34
2023/11/26 04:30:10;;;;;;;;;;;;;;;30.77;68.54;100973.34;5038197;28;69878;-33
2023/11/26 04:32:40;;;;;;;;;;;;;;;30.85;67.96;100975.00;5038393;28;63930;-35
2023/11/26 04:35:11;;;;;;;;;;;;;;;30.89;66.85;100968.09;5039451;28;70104;-37
2023/11/26 04:37:40;;;;;;;;;;;;;;;30.93;66.51;100956.59;5039711;28;66952;-35
2023/11/26 04:40:10;;;;;;;;;;;;;;;30.97;66.40;100948.84;5042270;28;69905;-34
2023/11/26 04:42:40;;;;;;;;;;;;;;;30.99;65.94;100946.75;5041575;28;65447;-34
2023/11/26 04:45:10;;;;;;;;;;;;;;;31.00;66.36;100934.88;5040867;28;69586;-34
2023/11/26 04:47:39;;;;;;;;;;;;;;;30.99;66.39;100933.22;5030313;28;66374;-34
2023/11/26 04:50:10;;;;;;;;;;;;;;;31.10;66.89;100924.38;5042458;28;70937;-34
2023/11/26 04:52:39;;;;;;;;;;;;;;;31.16;67.12;100923.50;5041521;28;66426;-35
2023/11/26 04:55:12;;;;;;;;;;;;;;;31.23;67.18;100920.75;5041562;28;70313;-35
2023/11/26 04:57:42;;;;;;;;;;;;;;;31.28;67.10;100911.94;5041620;28;66277;-36
2023/11/26 05:00:11;;;;;;;;;;;;;;;31.33;66.91;100909.38;5041315;28;70588;-34
2023/11/26 05:02:41;;;;;;;;;;;;;;;31.35;66.98;100899.16;5041720;28;65995;-36
2023/11/26 05:05:11;;;;;;;;;;;;;;;31.38;66.69;100898.75;5042566;28;70231;-36
2023/11/26 05:07:42;;;;;;;;;;;;;;;31.42;66.69;100894.50;5040297;28;65975;-34
2023/11/26 05:10:12;;;;;;;;;;;;;;;31.43;66.44;100882.63;5041720;28;71870;-35
2023/11/26 05:12:43;;;;;;;;;;;;;;;31.46;66.44;100879.47;5050131;28;65921;-36
2023/11/26 05:15:13;;;;;;;;;;;;;;;31.49;66.39;100862.75;5036761;28;70690;-33
2023/11/26 05:17:42;;;;;;;;;;;;;;;31.51;66.14;100854.38;5045468;28;65921;-34
2023/11/26 05:20:13;;;;;;;;;;;;;;;31.52;66.22;100859.59;5041579;28;69734;-36
2023/11/26 05:22:43;;;;;;;;;;;;;;;31.55;66.07;100859.13;5038631;28;65258;-36
2023/11/26 05:25:14;;;;;;;;;;;;;;;31.56;65.84;100851.81;5042107;28;70691;-34
2023/11/26 05:27:44;;;;;;;;;;;;;;;31.57;66.07;100845.38;5037237;28;66564;-35
2023/11/26 05:30:14;;;;;;;;;;;;;;;31.59;65.77;100838.66;5041676;28;70638;-35
2023/11/26 05:32:43;;;;;;;;;;;;;;;31.61;65.58;100838.41;5041301;28;66254;-36
2023/11/26 05:35:13;;;;;;;;;;;;;;;31.43;65.74;100833.84;5039145;28;69834;-34
2023/11/26 05:37:43;;;;;;;;;;;;;;;31.33;66.60;100825.34;5038591;28;67261;-36
2023/11/26 05:40:13;;;;;;;;;;;;;;;31.29;67.19;100824.16;5037565;28;70235;-34
2023/11/26 05:42:43;;;;;;;;;;;;;;;31.28;67.47;100823.31;5037883;28;66871;-36
2023/11/26 05:45:12;;;;;;;;;;;;;;;31.25;68.03;100817.53;5038565;28;70595;-34
2023/11/26 05:47:42;;;;;;;;;;;;;;;31.24;68.11;100815.88;5037089;28;66744;-37
2023/11/26 05:50:12;;;;;;;;;;;;;;;31.26;67.90;100808.31;5035322;28;69871;-36
2023/11/26 05:52:42;;;;;;;;;;;;;;;31.31;68.46;100803.06;5037643;28;66933;-35
2023/11/26 05:55:12;;;;;;;;;;;;;;;31.31;68.59;100805.78;5037405;28;70240;-36
2023/11/26 05:57:42;;;;;;;;;;;;;;;31.32;68.31;100799.31;5037793;28;66228;-34
2023/11/26 06:00:13;;;;;;;;;;;;;;;31.31;68.50;100797.66;5040707;28;69334;-35
2023/11/26 06:02:43;;;;;;;;;;;;;;;31.32;68.72;100796.63;5038223;28;66223;-34
2023/11/26 06:05:13;;;;;;;;;;;;;;;31.32;69.10;100793.91;5039024;28;69819;-35
2023/11/26 06:07:42;;;;;;;;;;;;;;;31.22;67.02;100796.28;5039125;28;65939;-34
2023/11/26 06:10:12;;;;;;;;;;;;;;;31.12;65.91;100781.41;5040238;28;69470;-33
2023/11/26 06:12:41;;;;;;;;;;;;;;;31.02;64.93;100781.06;5039096;28;66416;-36
2023/11/26 06:15:11;;;;;;;;;;;;;;;30.97;63.78;100771.97;5039716;28;70607;-34
2023/11/26 06:17:41;;;;;;;;;;;;;;;30.90;62.36;100769.31;5040640;28;67037;-34
2023/11/26 06:20:11;;;;;;;;;;;;;;;30.88;62.05;100763.31;5038811;28;70241;-35
2023/11/26 06:22:41;;;;;;;;;;;;;;;30.75;60.57;100763.38;5029209;28;66962;-34
2023/11/26 06:25:10;;;;;;;;;;;;;;;30.73;59.96;100763.63;5039061;28;69619;-34
2023/11/26 06:27:40;;;;;;;;;;;;;;;30.65;58.53;100759.31;5039063;28;66928;-35
2023/11/26 06:30:10;;;;;;;;;;;;;;;30.64;57.78;100756.81;5046694;28;70322;-34
2023/11/26 06:32:40;;;;;;;;;;;;;;;30.56;57.29;100755.19;5039347;28;66003;-34
2023/11/26 06:35:12;;;;;;;;;;;;;;;30.54;56.62;100746.50;5020868;28;70695;-33
2023/11/26 06:37:41;;;;;;;;;;;;;;;30.49;55.67;100749.03;5039377;28;67336;-36
2023/11/26 06:40:12;;;;;;;;;;;;;;;30.47;55.64;100751.13;5039409;28;70865;-35
2023/11/26 06:42:41;;;;;;;;;;;;;;;30.46;54.97;100744.88;5037219;28;66118;-33
2023/11/26 06:45:11;;;;;;;;;;;;;;;30.39;54.44;100748.69;5038021;28;69756;-33
2023/11/26 06:47:41;;;;;;;;;;;;;;;30.43;54.21;100750.75;5040054;28;66841;-34
2023/11/26 06:50:11;;;;;;;;;;;;;;;30.37;53.64;100739.94;5038649;28;69873;-33
2023/11/26 06:52:41;;;;;;;;;;;;;;;30.37;53.50;100740.81;5038600;28;65498;-33
2023/11/26 06:55:10;;;;;;;;;;;;;;;30.32;53.88;100731.69;5039788;28;70307;-33
2023/11/26 06:57:41;;;;;;;;;;;;;;;30.30;53.67;100728.38;5038326;28;66244;-35
2023/11/26 07:00:11;;;;;;;;;;;;;;;30.26;52.55;100728.81;5039376;28;70304;-34
2023/11/26 07:02:41;;;;;;;;;;;;;;;30.26;52.37;100728.00;5039902;28;66626;-33
2023/11/26 07:05:12;;;;;;;;;;;;;;;30.22;52.15;100716.75;5038810;28;69943;-34
2023/11/26 07:07:42;;;;;;;;;;;;;;;30.25;51.68;100710.06;5035008;28;65903;-35
2023/11/26 07:10:12;;;;;;;;;;;;;;;30.24;51.25;100714.66;5035233;28;70498;-34
2023/11/26 07:12:42;;;;;;;;;;;;;;;30.25;51.26;100713.59;5038121;28;67106;-34
2023/11/26 07:15:11;;;;;;;;;;;;;;;30.25;51.03;100704.66;5039554;28;70667;-34
2023/11/26 07:17:41;;;;;;;;;;;;;;;30.26;50.53;100700.94;5039508;28;66419;-35
2023/11/26 07:20:13;;;;;;;;;;;;;;;30.23;50.18;100696.78;5038103;28;70247;-32
2023/11/26 07:22:43;;;;;;;;;;;;;;;30.24;50.18;100693.03;5037883;28;66937;-34
2023/11/26 07:25:14;;;;;;;;;;;;;;;30.22;50.13;100697.81;5039022;28;70163;-34
2023/11/26 07:27:44;;;;;;;;;;;;;;;30.20;50.03;100697.19;5035415;28;67117;-40
2023/11/26 07:30:15;;;;;;;;;;;;;;;30.20;49.91;100697.19;5036450;28;70355;-33
2023/11/26 07:32:45;;;;;;;;;;;;;;;30.17;49.70;100697.63;5035266;28;66902;-34
2023/11/26 07:35:15;;;;;;;;;;;;;;;30.19;49.09;100703.63;5037655;28;70613;-33
2023/11/26 07:37:45;;;;;;;;;;;;;;;30.13;49.47;100701.00;5040308;28;66923;-34
2023/11/26 07:40:14;;;;;;;;;;;;;;;30.12;49.46;100700.16;5042723;28;69671;-34
2023/11/26 07:42:44;;;;;;;;;;;;;;;30.12;48.74;100694.75;5041719;28;65643;-33
2023/11/26 07:45:14;;;;;;;;;;;;;;;30.10;49.18;100691.44;5042037;28;70023;-36
2023/11/26 07:47:44;;;;;;;;;;;;;;;30.08;48.84;100693.53;5039548;28;67089;-33
2023/11/26 07:50:14;;;;;;;;;;;;;;;30.08;48.46;100698.94;5041996;28;70020;-33
2023/11/26 07:52:43;;;;;;;;;;;;;;;30.09;48.71;100703.31;5042136;28;64678;-36
2023/11/26 07:55:13;;;;;;;;;;;;;;;30.10;48.52;100704.13;5042980;28;70358;-36
2023/11/26 07:57:44;;;;;;;;;;;;;;;30.09;48.11;100706.03;5041536;28;67020;-34
2023/11/26 08:00:17;;;;;;;;;;;;;;;30.07;47.88;100708.13;5040861;28;69850;-34
2023/11/26 08:02:47;;;;;;;;;;;;;;;30.04;48.11;100698.56;5037424;28;65674;-32
2023/11/26 08:05:18;;;;;;;;;;;;;;;30.04;47.65;100695.84;5042541;28;71210;-33
2023/11/26 08:07:51;;;;;;;;;;;;;;;30.03;47.36;100690.66;5021293;28;65652;-35
2023/11/26 08:10:26;;;;;;;;;;;;;;;30.02;47.45;100686.28;5040356;28;70987;-34
2023/11/26 08:12:57;;;;;;;;;;;;;;;30.10;49.58;100675.22;5041414;28;66107;-33
2023/11/26 08:15:28;;;;;;;;;;;;;;;30.30;53.79;100675.06;5041909;28;69926;-34
2023/11/26 08:17:57;;;;;;;;;;;;;;;30.64;53.60;100675.59;5041037;28;67264;-33
2023/11/26 08:20:27;;;;;;;;;;;;;;;30.83;53.91;100679.19;5042514;28;69980;-33
2023/11/26 08:23:01;;;;;;;;;;;;;;;30.98;53.99;100690.47;5042028;28;66709;-33
2023/11/26 08:25:33;;;;;;;;;;;;;;;31.10;54.47;100691.38;5039969;28;69762;-34
2023/11/26 08:28:06;;;;;;;;;;;;;;;31.20;54.71;100696.25;5041137;28;65581;-34
2023/11/26 08:30:45;;;;;;;;;;;;;;;31.29;54.90;100689.47;5041226;28;71039;-35
2023/11/26 08:33:20;;;;;;;;;;;;;;;31.36;55.25;100679.41;5038558;28;66346;-34
2023/11/26 08:35:53;;;;;;;;;;;;;;;31.46;55.63;100688.91;5041359;28;69889;-34
2023/11/26 08:38:24;;;;;;;;;;;;;;;31.51;55.45;100698.00;5039183;28;66140;-36
2023/11/26 08:40:54;;;;;;;;;;;;;;;31.57;55.71;100697.06;5038461;28;70439;-33
2023/11/26 08:43:24;;;;;;;;;;;;;;;31.63;55.90;100694.50;5040613;28;66629;-33
2023/11/26 08:45:54;;;;;;;;;;;;;;;31.65;55.96;100698.63;5037665;28;70794;-37
2023/11/26 08:48:23;;;;;;;;;;;;;;;31.69;56.07;100699.81;5032226;28;66614;-35
2023/11/26 08:50:53;;;;;;;;;;;;;;;31.74;56.09;100705.38;5028268;28;70127;-34
2023/11/26 08:53:23;;;;;;;;;;;;;;;31.76;56.11;100710.56;5019495;28;66369;-35
2023/11/26 08:55:53;;;;;;;;;;;;;;;31.79;56.37;100726.41;5030004;28;70492;-34
2023/11/26 08:58:23;;;;;;;;;;;;;;;31.81;56.59;100722.38;5040890;28;66721;-34
2023/11/26 09:00:53;;;;;;;;;;;;;;;31.84;56.69;100737.34;5038925;28;69885;-34
2023/11/26 09:03:22;;;;;;;;;;;;;;;31.87;56.62;100734.19;5041440;28;66202;-34
2023/11/26 09:05:52;;;;;;;;;;;;;;;31.90;56.78;100739.19;5032803;28;70444;-34
2023/11/26 09:08:22;;;;;;;;;;;;;;;31.69;59.98;100737.78;5037313;28;66427;-34
2023/11/26 09:10:51;;;;;;;;;;;;;;;31.57;63.76;100737.75;5038126;28;69448;-36
2023/11/26 09:13:22;;;;;;;;;;;;;;;31.50;65.63;100744.28;5026021;28;66206;-34
2023/11/26 09:15:52;;;;;;;;;;;;;;;31.45;66.72;100753.09;5034579;28;68743;-35
2023/11/26 09:18:22;;;;;;;;;;;;;;;31.43;67.37;100749.00;5040182;28;64623;-37
2023/11/26 09:20:51;;;;;;;;;;;;;;;31.39;68.31;100754.00;5031209;28;69361;-35
2023/11/26 09:23:21;;;;;;;;;;;;;;;31.63;66.39;100762.28;5017885;28;65736;-33
2023/11/26 09:25:50;;;;;;;;;;;;;;;31.74;65.35;100770.47;5037569;28;70917;-35
2023/11/26 09:28:20;;;;;;;;;;;;;;;31.80;64.90;100771.44;5034762;28;66888;-33
2023/11/26 09:30:50;;;;;;;;;;;;;;;31.87;64.65;100772.16;5017670;28;70596;-33
2023/11/26 09:33:19;;;;;;;;;;;;;;;31.91;64.45;100783.41;5036052;28;65889;-39
2023/11/26 09:35:49;;;;;;;;;;;;;;;31.94;64.09;100789.22;5037909;28;70502;-33
2023/11/26 09:38:19;;;;;;;;;;;;;;;31.96;63.83;100792.53;5037726;28;66861;-34
2023/11/26 09:40:48;;;;;;;;;;;;;;;31.97;64.00;100783.31;5038398;28;70383;-35
2023/11/26 09:43:18;;;;;;;;;;;;;;;32.00;64.12;100790.19;5039429;28;67005;-40
2023/11/26 09:45:48;;;;;;;;;;;;;;;31.74;67.35;100794.06;5035487;28;70869;-35
2023/11/26 09:48:18;;;;;;;;;;;;;;;31.63;68.22;100786.69;5039416;28;67188;-34
2023/11/26 09:50:51;;;;;;;;;;;;;;;31.58;69.29;100785.47;5039117;28;70006;-34
2023/11/26 09:53:21;;;;;;;;;;;;;;;31.51;69.75;100798.31;5040997;28;67016;-34
2023/11/26 09:55:51;;;;;;;;;;;;;;;31.50;70.10;100793.09;5042813;28;70371;-33
2023/11/26 09:58:21;;;;;;;;;;;;;;;31.44;70.60;100800.25;5019934;28;65376;-34
2023/11/26 10:00:51;;;;;;;;;;;;;;;31.47;70.58;100805.22;5040161;28;70000;-34
2023/11/26 10:03:20;;;;;;;;;;;;;;;31.45;71.51;100801.91;5037620;28;65089;-34
2023/11/26 10:05:51;;;;;;;;;;;;;;;31.45;71.67;100790.22;5040859;28;70561;-35
2023/11/26 10:08:32;;;;;;;;;;;;;;;31.45;71.68;100801.06;5036479;28;67043;-37
2023/11/26 10:11:02;;;;;;;;;;;;;;;31.46;72.46;100811.69;5035188;28;70291;-34
2023/11/26 10:13:41;;;;;;;;;;;;;;;31.45;72.25;100818.16;5034771;28;66160;-34
2023/11/26 10:16:12;;;;;;;;;;;;;;;31.46;72.30;100814.41;5034550;28;70055;-34
2023/11/26 10:18:42;;;;;;;;;;;;;;;31.46;72.54;100814.41;5036960;28;66306;-34
2023/11/26 10:21:12;;;;;;;;;;;;;;;31.46;71.97;100814.41;5037526;28;70181;-34
2023/11/26 10:23:44;;;;;;;;;;;;;;;31.46;72.90;100814.41;5029103;28;65263;-33
2023/11/26 10:26:22;;;;;;;;;;;;;;;31.44;73.09;100821.94;5035845;28;70756;-35
2023/11/26 10:28:59;;;;;;;;;;;;;;;31.43;72.80;100825.72;5017527;28;65098;-34
2023/11/26 10:31:29;;;;;;;;;;;;;;;31.44;73.04;100824.66;5037742;28;69505;-36
2023/11/26 10:34:17;;;;;;;;;;;;;;;31.56;72.23;100830.97;5034080;28;65778;-34
2023/11/26 10:36:46;;;;;;;;;;;;;;;31.68;70.99;100844.59;5038629;28;69932;-34
2023/11/26 10:39:17;;;;;;;;;;;;;;;31.77;70.14;100853.25;5036631;28;66915;-33
2023/11/26 10:41:50;;;;;;;;;;;;;;;31.82;69.58;100858.84;5027720;28;70549;-34
2023/11/26 10:44:21;;;;;;;;;;;;;;;31.85;69.39;100871.94;5038911;28;66443;-34
2023/11/26 10:46:52;;;;;;;;;;;;;;;31.88;69.39;100882.34;5037666;28;70014;-36
2023/11/26 10:49:42;;;;;;;;;;;;;;;31.90;68.83;100880.25;5038376;28;66741;-33
2023/11/26 10:52:21;;;;;;;;;;;;;;;31.92;68.73;100883.56;5037022;28;70057;-36
2023/11/26 10:55:02;;;;;;;;;;;;;;;31.92;68.43;100875.41;5026712;28;66860;-35
2023/11/26 10:57:39;;;;;;;;;;;;;;;31.94;68.68;100883.34;5040517;28;70568;-35
2023/11/26 11:00:13;;;;;;;;;;;;;;;31.93;68.65;100890.66;5054012;28;66129;-35
2023/11/26 11:02:47;;;;;;;;;;;;;;;31.93;68.24;100890.66;5031823;28;70394;-35
2023/11/26 11:05:24;;;;;;;;;;;;;;;31.93;68.23;100896.09;5037920;28;65993;-35
2023/11/26 11:07:54;;;;;;;;;;;;;;;31.93;68.23;100892.53;5037995;28;70236;-34
2023/11/26 11:10:44;;;;;;;;;;;;;;;31.92;68.13;100905.25;5038469;28;66160;-35
2023/11/26 11:13:18;;;;;;;;;;;;;;;31.93;67.95;100911.50;5041926;28;69985;-35
2023/11/26 11:15:49;;;;;;;;;;;;;;;31.93;67.98;100916.94;5056621;28;65699;-34
2023/11/26 11:18:28;;;;;;;;;;;;;;;31.92;68.03;100920.72;5040306;28;70184;-33
2023/11/26 11:21:12;;;;;;;;;;;;;;;31.91;67.87;100936.16;5040102;28;66580;-34
2023/11/26 11:23:53;;;;;;;;;;;;;;;31.90;67.85;100939.91;5040381;28;69281;-33
2023/11/26 11:26:25;;;;;;;;;;;;;;;31.89;68.07;100940.94;5041190;28;66437;-34
2023/11/26 11:28:58;;;;;;;;;;;;;;;31.89;67.81;100943.66;5041602;28;69832;-33
2023/11/26 11:31:46;;;;;;;;;;;;;;;31.88;67.96;100952.88;5040115;28;66982;-34
2023/11/26 11:34:20;;;;;;;;;;;;;;;31.89;67.97;100964.53;5055424;28;70619;-34
2023/11/26 11:36:50;;;;;;;;;;;;;;;31.88;67.81;100950.16;5034173;28;65507;-33
2023/11/26 11:39:21;;;;;;;;;;;;;;;31.87;67.83;100951.19;5041109;28;70825;-34
2023/11/26 11:41:57;;;;;;;;;;;;;;;31.87;67.97;100953.09;5040728;28;67551;-35
2023/11/26 11:44:28;;;;;;;;;;;;;;;31.85;68.05;100950.63;5039544;28;70081;-34
2023/11/26 11:46:59;;;;;;;;;;;;;;;31.86;67.87;100948.72;5040451;28;65405;-34
2023/11/26 11:49:51;;;;;;;;;;;;;;;31.85;67.73;100955.22;5041257;28;70606;-34
2023/11/26 11:52:21;;;;;;;;;;;;;;;31.82;68.19;100954.59;5040237;28;65710;-34
2023/11/26 11:55:22;;;;;;;;;;;;;;;31.84;68.11;100962.50;5040931;28;69556;-33
2023/11/26 11:57:52;;;;;;;;;;;;;;;31.82;67.95;100967.34;5037816;28;66347;-34
2023/11/26 12:00:22;;;;;;;;;;;;;;;31.81;67.79;100973.81;5018495;28;69350;-33
2023/11/26 12:02:52;;;;;;;;;;;;;;;31.81;67.90;100973.81;5040364;28;66392;-36
2023/11/26 12:05:24;;;;;;;;;;;;;;;31.81;67.79;100971.09;5039746;28;70397;-33
2023/11/26 12:07:57;;;;;;;;;;;;;;;31.80;68.06;100966.72;5028643;28;66174;-35
2023/11/26 12:10:32;;;;;;;;;;;;;;;31.79;68.16;100971.31;5038599;28;69052;-34
2023/11/26 12:13:09;;;;;;;;;;;;;;;31.79;68.03;100981.34;5031660;28;66722;-34
2023/11/26 12:15:39;;;;;;;;;;;;;;;31.78;67.49;100979.69;5032602;28;70368;-35
2023/11/26 12:18:09;;;;;;;;;;;;;;;31.78;68.08;100979.69;5037904;28;65357;-33
2023/11/26 12:20:40;;;;;;;;;;;;;;;31.36;68.07;100911.69;5040378;28;70031;-32
2023/11/26 12:23:09;;;;;;;;;;;;;;;31.77;68.31;100976.13;5039115;28;66751;-34
2023/11/26 12:25:50;;;;;;;;;;;;;;;31.77;68.06;100969.88;5040154;28;69607;-33
2023/11/26 12:28:21;;;;;;;;;;;;;;;31.76;68.39;100970.94;5038276;28;65802;-34
2023/11/26 12:30:57;;;;;;;;;;;;;;;31.76;68.08;100979.06;5039987;28;70467;-34
2023/11/26 12:33:26;;;;;;;;;;;;;;;31.75;67.98;100980.13;5038593;28;65543;-34
2023/11/26 12:35:56;;;;;;;;;;;;;;;31.75;68.09;100986.38;5039682;28;70461;-33
2023/11/26 12:38:26;;;;;;;;;;;;;;;31.75;68.18;100985.56;5040152;28;66614;-34
2023/11/26 12:40:56;;;;;;;;;;;;;;;31.75;68.48;100977.41;5039994;28;69807;-34
2023/11/26 12:43:26;;;;;;;;;;;;;;;31.75;68.33;100980.13;5039391;28;65626;-38
2023/11/26 12:46:12;;;;;;;;;;;;;;;31.74;68.39;100983.91;5039010;28;70291;-34
2023/11/26 12:48:42;;;;;;;;;;;;;;;31.73;68.28;100982.22;5040674;28;66801;-33
2023/11/26 12:51:15;;;;;;;;;;;;;;;31.70;68.72;100977.25;5050858;28;70459;-35
2023/11/26 12:53:49;;;;;;;;;;;;;;;31.72;68.67;100980.56;5039692;28;66591;-34
2023/11/26 12:56:21;;;;;;;;;;;;;;;31.72;68.49;100975.16;5027833;28;70160;-34
2023/11/26 12:59:00;;;;;;;;;;;;;;;31.72;68.59;100977.88;5040146;28;66599;-34
2023/11/26 13:01:33;;;;;;;;;;;;;;;31.70;68.29;100977.25;5028172;28;70321;-34